Time;durP1;ratioP1;P1;durP2;ratioP2;P2;SDS_P1;SDS_P2;PMS_P1;PMS_P2;Temp;Humidity;BMP_temperature;BMP_pressure;BME280_temperature;BME280_humidity;BME280_pressure;Samples;Min_cycle;Max_cycle;Signal;HPM_P1;HPM_P2
2023/06/25 00:01:49;;;;;;;14.20;11.38;;;;;;;15.49;73.50;100581.34;1820310;78;25938;-54
2023/06/25 00:04:16;;;;;;;15.15;11.40;;;;;;;15.45;73.65;100579.06;1787921;80;25570;-50
2023/06/25 00:06:42;;;;;;;15.80;12.07;;;;;;;15.41;73.93;100584.39;1820342;78;25383;-50
2023/06/25 00:09:09;;;;;;;16.07;12.03;;;;;;;15.38;73.79;100575.52;1788071;80;25561;-52
2023/06/25 00:11:35;;;;;;;15.78;12.90;;;;;;;15.37;74.19;100577.20;1820444;78;26825;-53
2023/06/25 00:14:02;;;;;;;16.73;11.43;;;;;;;15.35;74.39;100571.30;1787920;80;27270;-51
2023/06/25 00:16:29;;;;;;;17.92;12.82;;;;;;;15.31;74.22;100576.05;1819722;78;25556;-52
2023/06/25 00:18:59;;;;;;;14.78;11.80;;;;;;;15.29;74.57;100571.50;1787548;80;25548;-53
2023/06/25 00:21:26;;;;;;;16.50;11.70;;;;;;;15.28;74.88;100577.28;1819790;78;25349;-50
2023/06/25 00:23:53;;;;;;;16.93;12.60;;;;;;;15.23;74.56;100572.83;1787467;80;28163;-51
2023/06/25 00:26:19;;;;;;;14.43;11.38;;;;;;;15.22;75.05;100568.52;1819674;78;25783;-50
2023/06/25 00:28:45;;;;;;;15.95;13.03;;;;;;;15.18;74.64;100568.94;1787474;80;25628;-54
2023/06/25 00:31:14;;;;;;;16.48;12.40;;;;;;;15.17;75.29;100566.55;1788073;78;25835;-50
2023/06/25 00:33:43;;;;;;;14.68;12.03;;;;;;;15.13;75.23;100567.78;1787697;80;25618;-51
2023/06/25 00:36:09;;;;;;;;;;;;;;;15.08;75.39;100561.96;1822313;78;27522;-51
2023/06/25 00:38:38;;;;;;;14.10;11.20;;;;;;;15.05;75.47;100561.83;1819802;78;25961;-51
2023/06/25 00:41:10;;;;;;;16.35;11.73;;;;;;;15.00;75.32;100562.84;1787650;80;33211;-50
2023/06/25 00:43:41;;;;;;;15.32;12.00;;;;;;;14.98;75.53;100558.27;1819715;78;26957;-51
2023/06/25 00:46:13;;;;;;;17.42;12.10;;;;;;;14.97;75.64;100564.08;1787446;80;25355;-50
2023/06/25 00:48:45;;;;;;;16.50;12.68;;;;;;;14.93;75.46;100560.66;1819757;78;27530;-50
2023/06/25 00:51:11;;;;;;;18.20;12.25;;;;;;;14.91;75.59;100558.83;1786879;80;25613;-52
2023/06/25 00:53:38;;;;;;;19.05;12.45;;;;;;;14.90;75.94;100561.88;1819616;78;25471;-51
2023/06/25 00:56:04;;;;;;;16.52;12.73;;;;;;;14.87;76.29;100564.69;1787462;80;25704;-51
2023/06/25 00:58:34;;;;;;;15.08;12.35;;;;;;;14.84;76.19;100562.63;1819801;78;25377;-50
2023/06/25 01:00:59;;;;;;;17.92;12.90;;;;;;;14.82;76.35;100562.73;1756376;80;27478;-50
2023/06/25 01:03:30;;;;;;;18.73;13.13;;;;;;;14.78;76.56;100559.88;1820522;78;25502;-52
2023/06/25 01:06:08;;;;;;;16.73;12.28;;;;;;;14.74;76.56;100558.93;1793348;80;25520;-51
2023/06/25 01:08:38;;;;;;;15.58;12.80;;;;;;;14.72;76.57;100563.91;1795950;78;25564;-53
2023/06/25 01:11:09;;;;;;;17.02;12.25;;;;;;;14.69;76.62;100558.58;1790321;80;25438;-51
2023/06/25 01:13:34;;;;;;;15.32;12.18;;;;;;;14.67;76.87;100562.17;1825493;78;27509;-50
2023/06/25 01:16:00;;;;;;;13.93;11.57;;;;;;;14.66;76.87;100552.42;1793332;80;32545;-50
2023/06/25 01:18:26;;;;;;;19.60;13.28;;;;;;;14.65;77.35;100548.09;1825844;78;25530;-52
2023/06/25 01:20:56;;;;;;;15.05;12.15;;;;;;;14.65;77.52;100551.39;1793275;80;25589;-50
2023/06/25 01:23:22;;;;;;;15.88;12.15;;;;;;;14.65;77.56;100550.03;1825995;78;25399;-51
2023/06/25 01:25:49;;;;;;;15.63;12.10;;;;;;;14.64;77.73;100554.69;1793272;80;27521;-50
2023/06/25 01:28:20;;;;;;;17.52;12.53;;;;;;;14.65;77.77;100547.31;1825676;78;25425;-52
2023/06/25 01:30:44;;;;;;;13.93;11.90;;;;;;;14.66;77.88;100555.69;1792833;80;25549;-53
2023/06/25 01:33:15;;;;;;;16.50;12.35;;;;;;;14.67;77.86;100547.20;1825809;78;27379;-54
2023/06/25 01:35:39;;;;;;;16.77;12.13;;;;;;;14.66;78.14;100544.80;1763839;80;25403;-53
2023/06/25 01:38:05;;;;;;;17.80;12.10;;;;;;;14.69;78.23;100547.69;1795811;78;27524;-54
2023/06/25 01:40:31;;;;;;;14.93;11.35;;;;;;;14.70;78.29;100550.62;1793230;80;25451;-50
2023/06/25 01:42:57;;;;;;;17.32;12.18;;;;;;;14.72;78.32;100548.94;1825724;78;25536;-51
2023/06/25 01:45:23;;;;;;;18.10;12.70;;;;;;;14.71;78.17;100545.42;1793272;80;25481;-50
2023/06/25 01:47:50;;;;;;;16.67;12.35;;;;;;;14.70;78.18;100543.81;1825485;78;25462;-53
2023/06/25 01:50:16;;;;;;;15.40;12.60;;;;;;;14.66;78.00;100548.89;1793262;80;27560;-52
2023/06/25 01:52:43;;;;;;;18.40;11.88;;;;;;;14.63;77.96;100545.48;1825672;78;25613;-51
2023/06/25 01:55:09;;;;;;;17.57;12.00;;;;;;;14.61;78.11;100547.17;1793019;80;25654;-51
2023/06/25 01:57:35;;;;;;;14.75;11.90;;;;;;;14.60;78.09;100546.14;1825702;78;25459;-50
2023/06/25 02:00:04;;;;;;;19.07;10.98;;;;;;;14.59;77.95;100541.81;1793290;80;25384;-51
2023/06/25 02:02:30;;;;;;;17.92;12.25;;;;;;;14.56;78.12;100544.61;1825817;78;28035;-50
2023/06/25 02:04:56;;;;;;;17.65;11.97;;;;;;;14.53;77.89;100544.69;1770398;80;25374;-55
2023/06/25 02:07:22;;;;;;;19.12;12.28;;;;;;;14.51;77.96;100538.00;1790490;80;25573;-50
2023/06/25 02:09:49;;;;;;;16.00;11.53;;;;;;;14.51;78.30;100535.28;1790479;80;25524;-51
2023/06/25 02:12:15;;;;;;;18.35;11.80;;;;;;;14.50;78.44;100534.46;1790518;80;25529;-50
2023/06/25 02:14:41;;;;;;;15.43;12.70;;;;;;;14.51;78.53;100530.62;1790549;80;27582;-50
2023/06/25 02:17:07;;;;;;;15.85;11.63;;;;;;;14.51;78.54;100527.91;1790441;80;25542;-52
2023/06/25 02:19:33;;;;;;;14.83;12.15;;;;;;;14.52;78.47;100527.33;1790510;80;25411;-50
2023/06/25 02:21:59;;;;;;;16.82;12.43;;;;;;;14.53;78.56;100531.66;1790483;80;25501;-51
2023/06/25 02:24:26;;;;;;;15.20;11.63;;;;;;;14.51;78.52;100533.92;1790507;80;25415;-52
2023/06/25 02:26:52;;;;;;;15.78;11.28;;;;;;;14.51;78.64;100538.79;1790515;80;27445;-53
2023/06/25 02:29:18;;;;;;;16.77;12.13;;;;;;;14.53;78.77;100543.91;1790803;80;25526;-51
2023/06/25 02:31:45;;;;;;;15.28;11.20;;;;;;;14.52;78.70;100545.84;1761939;80;25411;-50
2023/06/25 02:34:11;;;;;;;15.25;11.88;;;;;;;14.49;78.61;100546.49;1762155;80;25414;-52
2023/06/25 02:36:37;;;;;;;16.07;11.50;;;;;;;14.48;78.44;100540.80;1790533;80;25406;-50
2023/06/25 02:39:03;;;;;;;15.90;11.43;;;;;;;14.48;78.66;100544.09;1790469;80;27412;-50
2023/06/25 02:41:29;;;;;;;17.67;12.63;;;;;;;14.46;78.62;100545.78;1790399;80;25450;-51
2023/06/25 02:43:55;;;;;;;13.40;11.33;;;;;;;14.46;78.74;100547.72;1762062;80;25421;-50
2023/06/25 02:46:22;;;;;;;16.20;12.03;;;;;;;14.45;78.70;100550.19;1761593;80;25632;-50
2023/06/25 02:48:48;;;;;;;18.65;12.05;;;;;;;14.43;78.78;100546.44;1761802;80;25561;-53
2023/06/25 02:51:14;;;;;;;15.88;11.97;;;;;;;14.46;79.06;100545.00;1790503;80;27474;-52
2023/06/25 02:53:40;;;;;;;17.37;12.18;;;;;;;14.48;79.34;100542.16;1790391;80;25821;-51
2023/06/25 02:56:06;;;;;;;15.53;11.38;;;;;;;14.50;79.37;100541.27;1761747;80;25410;-51
2023/06/25 02:58:32;;;;;;;14.45;11.65;;;;;;;14.53;79.43;100543.91;1790410;80;25643;-50
2023/06/25 03:00:59;;;;;;;15.23;11.30;;;;;;;14.53;79.20;100550.14;1790589;80;25602;-50
2023/06/25 03:03:25;;;;;;;16.17;10.78;;;;;;;14.54;79.54;100546.30;1790439;80;28199;-53
2023/06/25 03:05:52;;;;;;;16.35;11.73;;;;;;;14.59;79.69;100543.17;1816599;78;25528;-53
2023/06/25 03:08:19;;;;;;;14.90;12.28;;;;;;;14.63;79.90;100547.64;1787362;80;25591;-50
2023/06/25 03:10:45;;;;;;;13.00;11.15;;;;;;;14.67;80.07;100543.69;1819586;78;25485;-54
2023/06/25 03:13:12;;;;;;;14.75;11.22;;;;;;;14.72;79.88;100548.94;1787411;80;25429;-52
2023/06/25 03:15:38;;;;;;;13.40;11.05;;;;;;;14.74;80.02;100550.77;1819603;78;27529;-51
2023/06/25 03:18:04;;;;;;;12.07;10.78;;;;;;;14.79;80.35;100542.97;1787290;80;25791;-53
2023/06/25 03:20:30;;;;;;;14.28;11.38;;;;;;;14.84;80.48;100544.92;1819632;78;25531;-52
2023/06/25 03:22:56;;;;;;;16.40;11.55;;;;;;;14.87;80.25;100548.34;1787317;80;25527;-51
2023/06/25 03:25:22;;;;;;;13.78;11.48;;;;;;;14.89;80.20;100551.53;1819614;78;25454;-50
2023/06/25 03:27:48;;;;;;;14.93;10.98;;;;;;;14.92;80.09;100557.69;1787377;80;27478;-50
2023/06/25 03:30:14;;;;;;;14.58;11.22;;;;;;;14.95;80.21;100554.88;1814274;78;25387;-53
2023/06/25 03:32:42;;;;;;;18.52;11.48;;;;;;;15.00;80.33;100555.22;1787357;80;25604;-52
2023/06/25 03:35:09;;;;;;;14.78;10.63;;;;;;;15.03;80.17;100554.56;1819613;78;26045;-52
2023/06/25 03:37:36;;;;;;;17.37;11.63;;;;;;;15.06;80.24;100551.18;1787383;80;25437;-51
2023/06/25 03:40:03;;;;;;;15.85;11.22;;;;;;;15.09;80.24;100556.75;1814463;78;28207;-50
2023/06/25 03:42:29;;;;;;;15.23;10.35;;;;;;;15.13;80.33;100560.97;1786974;80;25392;-50
2023/06/25 03:44:56;;;;;;;13.83;11.15;;;;;;;15.17;80.48;100556.47;1819576;78;25351;-52
2023/06/25 03:47:22;;;;;;;16.70;11.73;;;;;;;15.23;80.66;100552.39;1787317;80;25552;-51
2023/06/25 03:49:48;;;;;;;18.00;11.50;;;;;;;15.30;80.80;100551.85;1819652;78;25680;-53
2023/06/25 03:52:14;;;;;;;14.78;10.90;;;;;;;15.37;80.90;100545.28;1787478;80;27496;-50
2023/06/25 03:54:40;;;;;;;17.15;10.85;;;;;;;15.42;80.79;100546.44;1819707;78;25709;-50
2023/06/25 03:57:07;;;;;;;16.80;11.60;;;;;;;15.46;80.55;100552.02;1787504;80;25551;-51
2023/06/25 03:59:33;;;;;;;14.25;10.95;;;;;;;15.51;80.42;100547.75;1819707;78;27712;-51
2023/06/25 04:01:59;;;;;;;16.62;11.65;;;;;;;15.57;80.66;100549.11;1787621;80;25580;-50
2023/06/25 04:04:25;;;;;;;13.53;11.08;;;;;;;15.62;80.81;100546.17;1820793;78;27458;-53
2023/06/25 04:06:51;;;;;;;16.20;11.20;;;;;;;15.69;80.68;100552.44;1793415;80;25521;-52
2023/06/25 04:09:18;;;;;;;13.68;11.22;;;;;;;15.75;80.80;100552.49;1825835;78;25520;-53
2023/06/25 04:11:45;;;;;;;16.32;11.35;;;;;;;15.81;80.71;100547.61;1793414;80;25592;-51
2023/06/25 04:14:11;;;;;;;18.35;11.00;;;;;;;15.86;80.71;100546.81;1825842;78;25444;-50
2023/06/25 04:16:37;;;;;;;16.07;11.40;;;;;;;15.93;80.67;100551.72;1793313;80;27464;-50
2023/06/25 04:19:03;;;;;;;15.38;11.55;;;;;;;15.99;80.68;100553.09;1825728;78;25557;-53
2023/06/25 04:21:29;;;;;;;23.30;11.48;;;;;;;16.05;80.50;100552.30;1793351;80;25573;-53
2023/06/25 04:23:55;;;;;;;17.57;12.30;;;;;;;16.11;80.54;100559.72;1825774;78;25534;-50
2023/06/25 04:26:21;;;;;;;17.00;11.80;;;;;;;16.17;80.59;100556.40;1790464;80;25583;-50
2023/06/25 04:28:47;;;;;;;12.80;10.95;;;;;;;16.25;80.49;100560.17;1825806;78;27507;-50
2023/06/25 04:31:14;;;;;;;16.25;10.98;;;;;;;16.31;80.44;100554.72;1793262;80;25567;-50
2023/06/25 04:33:41;;;;;;;17.75;12.20;;;;;;;16.39;80.55;100564.70;1825789;78;25596;-50
2023/06/25 04:36:10;;;;;;;17.32;12.00;;;;;;;16.47;80.54;100556.77;1793316;80;26191;-50
2023/06/25 04:38:37;;;;;;;15.68;11.83;;;;;;;16.61;80.29;100557.19;1825992;78;25371;-50
2023/06/25 04:41:03;;;;;;;17.42;11.33;;;;;;;16.61;80.29;100557.19;1793269;80;28152;-54
2023/06/25 04:43:29;;;;;;;17.35;11.68;;;;;;;16.66;80.03;100558.33;1825696;78;25590;-53
2023/06/25 04:45:56;;;;;;;19.15;12.07;;;;;;;16.72;79.95;100562.42;1793319;80;25445;-51
2023/06/25 04:48:22;;;;;;;14.93;11.18;;;;;;;16.80;79.84;100557.95;1825775;78;25566;-52
2023/06/25 04:50:48;;;;;;;14.38;10.98;;;;;;;16.86;79.69;100564.02;1790509;80;25510;-51
2023/06/25 04:53:14;;;;;;;16.60;11.90;;;;;;;16.92;79.80;100560.69;1795955;78;28094;-54
2023/06/25 04:55:41;;;;;;;15.23;11.78;;;;;;;17.01;79.71;100563.30;1793254;80;25573;-54
2023/06/25 04:58:07;;;;;;;15.38;10.98;;;;;;;17.08;79.64;100563.50;1825852;78;25546;-53
2023/06/25 05:00:33;;;;;;;17.80;11.57;;;;;;;17.13;79.29;100553.70;1793245;80;25454;-51
2023/06/25 05:02:59;;;;;;;16.85;11.25;;;;;;;17.19;79.15;100561.07;1825824;78;25606;-51
2023/06/25 05:05:26;;;;;;;16.65;11.85;;;;;;;17.25;79.15;100566.52;1793159;80;27808;-51
2023/06/25 05:07:52;;;;;;;13.68;10.88;;;;;;;17.33;79.07;100563.41;1825700;78;25392;-53
2023/06/25 05:10:20;;;;;;;16.40;11.12;;;;;;;17.39;78.78;100563.97;1793294;80;25485;-53
2023/06/25 05:12:47;;;;;;;16.82;11.80;;;;;;;17.44;78.71;100566.45;1825907;78;26118;-52
2023/06/25 05:15:14;;;;;;;16.62;10.98;;;;;;;17.50;78.90;100560.94;1793173;80;25394;-54
2023/06/25 05:17:41;;;;;;;17.60;11.63;;;;;;;17.58;78.92;100562.73;1825797;78;27535;-52
2023/06/25 05:20:08;;;;;;;14.35;11.68;;;;;;;17.63;78.35;100558.37;1793220;80;25625;-54
2023/06/25 05:22:35;;;;;;;16.02;11.85;;;;;;;17.69;78.19;100554.80;1825820;78;25386;-54
2023/06/25 05:25:01;;;;;;;15.50;11.43;;;;;;;17.76;78.50;100555.00;1793174;80;25640;-51
2023/06/25 05:27:27;;;;;;;20.17;11.28;;;;;;;17.85;78.47;100550.73;1825844;78;25528;-51
2023/06/25 05:29:53;;;;;;;15.78;11.48;;;;;;;17.95;78.32;100557.66;1793272;80;27493;-51
2023/06/25 05:32:19;;;;;;;17.98;11.48;;;;;;;18.05;78.21;100554.39;1825699;78;25590;-51
2023/06/25 05:34:46;;;;;;;14.45;11.10;;;;;;;18.14;77.95;100557.73;1793314;80;25541;-50
2023/06/25 05:37:12;;;;;;;14.35;11.80;;;;;;;18.22;77.91;100556.77;1825792;78;25551;-51
2023/06/25 05:39:38;;;;;;;14.53;11.85;;;;;;;18.33;77.25;100563.07;1793289;80;25467;-51
2023/06/25 05:42:05;;;;;;;15.30;11.20;;;;;;;18.41;77.27;100562.09;1825786;78;27207;-51
2023/06/25 05:44:31;;;;;;;13.38;10.90;;;;;;;18.51;77.36;100564.28;1792720;80;25614;-51
2023/06/25 05:46:57;;;;;;;14.25;11.68;;;;;;;18.63;77.15;100572.39;1825764;78;25593;-50
2023/06/25 05:49:24;;;;;;;17.67;11.08;;;;;;;18.71;76.37;100569.80;1793274;80;25492;-51
2023/06/25 05:51:51;;;;;;;13.40;11.03;;;;;;;18.81;76.33;100568.69;1825809;78;25552;-53
2023/06/25 05:54:17;;;;;;;16.60;11.35;;;;;;;18.93;76.27;100560.91;1764529;80;27470;-51
2023/06/25 05:56:43;;;;;;;16.00;10.60;;;;;;;19.04;76.14;100560.58;1825682;78;25530;-50
2023/06/25 05:59:10;;;;;;;16.15;11.57;;;;;;;19.17;75.87;100560.42;1793244;80;25546;-52
2023/06/25 06:01:38;;;;;;;15.30;11.20;;;;;;;19.32;76.20;100558.77;1825677;78;25536;-50
2023/06/25 06:04:06;;;;;;;17.00;11.50;;;;;;;19.47;75.26;100559.84;1793282;80;25404;-51
2023/06/25 06:06:32;;;;;;;15.68;11.10;;;;;;;19.57;74.55;100560.03;1825700;78;27604;-51
2023/06/25 06:08:58;;;;;;;14.03;10.38;;;;;;;19.69;74.86;100555.55;1793216;80;25384;-52
2023/06/25 06:11:24;;;;;;;14.63;9.60;;;;;;;19.86;74.46;100555.69;1798402;78;25686;-54
2023/06/25 06:13:51;;;;;;;13.93;10.45;;;;;;;20.01;74.39;100551.23;1793211;80;26099;-53
2023/06/25 06:16:17;;;;;;;15.32;9.55;;;;;;;20.17;74.06;100548.34;1825839;78;25376;-52
2023/06/25 06:18:43;;;;;;;15.03;10.35;;;;;;;20.31;73.46;100551.30;1760866;80;27480;-53
2023/06/25 06:21:09;;;;;;;15.45;10.90;;;;;;;20.44;72.96;100554.06;1793178;80;25541;-54
2023/06/25 06:23:35;;;;;;;15.90;10.10;;;;;;;20.53;71.73;100546.36;1825784;78;25424;-51
2023/06/25 06:26:01;;;;;;;12.95;10.10;;;;;;;20.60;71.71;100550.35;1793201;80;25596;-51
2023/06/25 06:28:28;;;;;;;11.60;9.40;;;;;;;20.73;72.14;100546.84;1825502;78;25557;-50
2023/06/25 06:30:54;;;;;;;11.05;8.88;;;;;;;20.89;71.84;100548.81;1792873;80;27466;-50
2023/06/25 06:33:20;;;;;;;12.07;8.98;;;;;;;21.05;71.68;100545.89;1825227;78;25836;-51
2023/06/25 06:35:46;;;;;;;11.18;9.20;;;;;;;21.23;71.55;100549.64;1791575;80;25764;-51
2023/06/25 06:38:12;;;;;;;13.20;10.03;;;;;;;21.40;70.36;100551.02;1824014;78;25682;-51
2023/06/25 06:40:38;;;;;;;12.40;9.35;;;;;;;21.54;70.32;100547.64;1791471;80;25684;-55
2023/06/25 06:43:04;;;;;;;11.75;9.20;;;;;;;21.71;69.97;100553.13;1824792;78;27532;-51
2023/06/25 06:45:31;;;;;;;12.70;9.23;;;;;;;21.89;69.27;100555.24;1792285;80;25797;-52
2023/06/25 06:47:57;;;;;;;11.50;8.70;;;;;;;21.98;67.88;100552.39;1794802;78;25748;-51
2023/06/25 06:50:23;;;;;;;11.18;8.80;;;;;;;22.13;68.46;100551.89;1793056;80;25549;-51
2023/06/25 06:52:49;;;;;;;11.60;9.30;;;;;;;22.37;68.30;100552.49;1825782;78;25608;-51
2023/06/25 06:55:15;;;;;;;9.50;8.13;;;;;;;22.58;67.20;100550.48;1793271;80;28709;-52
2023/06/25 06:57:42;;;;;;;12.65;8.98;;;;;;;22.75;66.85;100544.27;1825644;78;25391;-51
2023/06/25 07:00:09;;;;;;;12.18;7.90;;;;;;;22.97;66.42;100548.52;1793336;80;25568;-53
2023/06/25 07:02:36;;;;;;;8.93;7.45;;;;;;;23.16;65.00;100545.27;1825681;78;25590;-53
2023/06/25 07:05:02;;;;;;;9.93;8.43;;;;;;;23.25;64.29;100536.02;1792852;80;25399;-54
2023/06/25 07:07:28;;;;;;;11.22;6.78;;;;;;;23.40;63.16;100537.64;1787905;78;29708;-52
2023/06/25 07:09:55;;;;;;;8.90;7.00;;;;;;;23.58;64.02;100539.07;1787532;80;25553;-52
2023/06/25 07:12:21;;;;;;;11.83;8.08;;;;;;;23.85;63.55;100536.76;1788267;78;25539;-50
2023/06/25 07:14:48;;;;;;;11.88;7.25;;;;;;;24.12;63.00;100528.66;1787994;80;25619;-52
2023/06/25 07:17:14;;;;;;;9.98;7.47;;;;;;;24.41;62.73;100529.40;1820233;78;25541;-51
2023/06/25 07:19:41;;;;;;;7.95;6.80;;;;;;;24.67;61.44;100532.34;1787733;80;27496;-53
2023/06/25 07:22:07;;;;;;;7.65;6.67;;;;;;;24.85;60.19;100525.95;1787265;80;25440;-53
2023/06/25 07:24:33;;;;;;;8.03;6.92;;;;;;;25.11;60.88;100523.26;1787343;80;25542;-54
2023/06/25 07:27:00;;;;;;;9.00;6.22;;;;;;;25.43;60.14;100527.86;1819757;78;25540;-52
2023/06/25 07:29:28;;;;;;;10.90;7.30;;;;;;;25.68;58.94;100527.70;1787555;80;25446;-51
2023/06/25 07:31:54;;;;;;;7.50;6.20;;;;;;;25.91;58.03;100526.53;1787490;80;29632;-53
2023/06/25 07:34:22;;;;;;;8.85;6.10;;;;;;;26.15;57.16;100519.79;1787440;80;25554;-54
2023/06/25 07:36:49;;;;;;;9.58;6.50;;;;;;;26.41;56.80;100519.75;1787540;80;25560;-51
2023/06/25 07:39:29;;;;;;;8.60;6.75;;;;;;;26.70;56.24;100525.01;1787465;80;25572;-56
2023/06/25 07:41:57;;;;;;;8.48;6.35;;;;;;;26.99;55.79;100521.27;1787594;80;25449;-52
2023/06/25 07:44:25;;;;;;;7.77;6.60;;;;;;;27.31;54.21;100521.48;1787744;80;27563;-53
2023/06/25 07:46:52;;;;;;;7.97;6.28;;;;;;;27.46;53.08;100515.09;1787455;80;25720;-55
2023/06/25 07:49:18;;;;;;;8.60;5.67;;;;;;;27.66;52.50;100518.58;1787542;80;25550;-54
2023/06/25 07:51:49;;;;;;;9.68;5.95;;;;;;;27.88;52.20;100512.84;1787404;80;27712;-52
2023/06/25 07:54:17;;;;;;;6.87;5.30;;;;;;;28.10;51.56;100511.11;1787577;80;25601;-51
2023/06/25 07:56:44;;;;;;;9.85;5.65;;;;;;;28.35;50.40;100512.64;1787512;80;28047;-53
2023/06/25 07:59:13;;;;;;;9.50;5.67;;;;;;;28.63;50.14;100508.56;1787429;80;25375;-54
2023/06/25 08:01:39;;;;;;;;;;;;;;;28.92;48.57;100505.96;1790190;80;25391;-54
2023/06/25 08:04:06;;;;;;;7.60;5.95;;;;;;;29.10;47.20;100506.17;1756688;80;25543;-53
2023/06/25 08:06:33;;;;;;;6.55;5.95;;;;;;;29.30;47.56;100502.76;1769012;80;25615;-55
2023/06/25 08:08:59;;;;;;;6.45;5.85;;;;;;;29.61;47.02;100501.06;1790591;80;27491;-55
2023/06/25 08:11:26;;;;;;;5.90;5.30;;;;;;;29.94;46.81;100503.84;1790498;80;25697;-54
2023/06/25 08:13:52;;;;;;;6.67;5.97;;;;;;;30.16;45.45;100497.87;1790569;80;25532;-53
2023/06/25 08:16:18;;;;;;;8.73;5.70;;;;;;;30.31;45.16;100497.50;1790536;80;26053;-54
2023/06/25 08:18:44;;;;;;;8.43;5.72;;;;;;;30.65;44.89;100507.33;1790561;80;25608;-53
2023/06/25 08:21:12;;;;;;;6.33;5.40;;;;;;;30.97;44.21;100505.02;1761765;80;27534;-52
2023/06/25 08:23:38;;;;;;;8.23;5.35;;;;;;;31.23;42.73;100500.24;1790474;80;25372;-53
2023/06/25 08:26:04;;;;;;;10.05;6.92;;;;;;;31.31;42.10;100497.22;1790554;80;25601;-53
2023/06/25 08:28:30;;;;;;;63.63;60.00;;;;;;;31.47;42.08;100502.06;1790490;80;25626;-54
2023/06/25 08:30:57;;;;;;;57.23;54.08;;;;;;;31.71;41.62;100498.16;1777783;80;25429;-54
2023/06/25 08:33:23;;;;;;;64.40;60.90;;;;;;;31.94;41.24;100496.38;1771477;81;28208;-56
2023/06/25 08:35:49;;;;;;;63.55;59.95;;;;;;;32.12;40.33;100493.59;1770788;81;25863;-55
2023/06/25 08:38:18;;;;;;;61.33;58.00;;;;;;;32.31;39.98;100491.72;1771724;81;25654;-55
2023/06/25 08:40:45;;;;;;;;;;;;;;;32.52;39.13;100488.14;1774275;81;25558;-56
2023/06/25 08:43:12;;;;;;;6.47;5.87;;;;;;;32.72;38.47;100490.61;1771746;81;25599;-52
2023/06/25 08:45:38;;;;;;;6.37;5.50;;;;;;;32.74;37.89;100497.95;1771666;81;27473;-54
2023/06/25 08:48:12;;;;;;;8.28;6.40;;;;;;;32.34;36.74;100491.58;1771593;81;25562;-54
2023/06/25 08:50:43;;;;;;;7.62;5.97;;;;;;;31.75;37.30;100484.20;1743271;81;25632;-55
2023/06/25 08:53:10;;;;;;;9.25;6.17;;;;;;;31.40;37.78;100490.35;1743265;81;25536;-53
2023/06/25 08:55:38;;;;;;;8.78;6.35;;;;;;;31.06;38.38;100493.20;1771731;81;25652;-53
2023/06/25 08:58:05;;;;;;;8.03;5.72;;;;;;;31.24;39.11;100488.44;1771853;81;27469;-56
2023/06/25 09:00:31;;;;;;;7.45;5.83;;;;;;;31.62;39.04;100476.48;1770969;81;25916;-52
2023/06/25 09:02:57;;;;;;;62.58;59.18;;;;;;;32.01;38.29;100483.53;1771716;81;25409;-56
2023/06/25 09:05:27;;;;;;;64.00;60.30;;;;;;;32.47;37.98;100472.53;1743199;81;26944;-54
2023/06/25 09:07:55;;;;;;;66.07;62.20;;;;;;;32.85;37.06;100478.55;1784394;80;25450;-53
2023/06/25 09:10:22;;;;;;;7.25;5.58;;;;;;;32.97;36.65;100486.70;1785058;80;27973;-56
2023/06/25 09:12:51;;;;;;;9.78;5.37;;;;;;;32.73;35.90;100492.18;1784832;80;25611;-56
2023/06/25 09:15:22;;;;;;;;;;;;;;;32.27;35.86;100485.48;1787596;80;25370;-56
2023/06/25 09:17:49;;;;;;;54.90;51.90;;;;;;;32.29;37.02;100492.80;1784903;80;25588;-53
2023/06/25 09:20:17;;;;;;;63.20;59.42;;;;;;;32.69;36.92;100488.74;1759274;81;25450;-54
2023/06/25 09:22:53;;;;;;;61.08;57.38;;;;;;;33.04;36.11;100488.59;1776114;80;27456;-53
2023/06/25 09:25:21;;;;;;;21.82;20.35;;;;;;;33.19;35.29;100490.25;1759206;81;25433;-55
2023/06/25 09:27:48;;;;;;;8.05;5.65;;;;;;;33.03;35.15;100488.45;1776241;80;25540;-54
2023/06/25 09:30:16;;;;;;;6.92;6.22;;;;;;;32.69;35.12;100484.55;1759193;81;25601;-53
2023/06/25 09:32:53;;;;;;;66.02;62.30;;;;;;;32.84;35.28;100480.55;1776202;80;25417;-55
2023/06/25 09:35:23;;;;;;;11.55;10.55;;;;;;;33.01;34.77;100481.11;1759237;81;27465;-56
2023/06/25 09:37:53;;;;;;;62.43;59.05;;;;;;;33.36;34.47;100495.61;1775325;80;25403;-53
2023/06/25 09:40:20;;;;;;;62.00;58.52;;;;;;;33.61;34.67;100478.53;1759163;81;25663;-55
2023/06/25 09:42:50;;;;;;;62.65;59.20;;;;;;;34.11;33.85;100470.02;1776172;80;25486;-55
2023/06/25 09:45:16;;;;;;;21.23;19.57;;;;;;;34.59;33.37;100468.88;1759231;81;25562;-56
2023/06/25 09:47:45;;;;;;;6.33;5.55;;;;;;;34.91;32.67;100475.69;1776018;80;28171;-57
2023/06/25 09:50:20;;;;;;;6.72;5.65;;;;;;;34.64;32.08;100472.31;1759112;81;25618;-54
2023/06/25 09:52:59;;;;;;;9.30;6.00;;;;;;;34.14;32.15;100466.28;1776090;80;25520;-52
2023/06/25 09:55:28;;;;;;;12.47;5.53;;;;;;;33.73;32.85;100473.27;1759145;81;25625;-55
2023/06/25 09:57:56;;;;;;;62.30;58.85;;;;;;;33.87;32.53;100465.66;1776093;80;25598;-55
2023/06/25 10:00:27;;;;;;;59.37;56.07;;;;;;;34.08;32.72;100461.13;1759449;81;27495;-54
2023/06/25 10:02:53;;;;;;;59.08;55.78;;;;;;;34.47;32.26;100461.42;1776012;80;25604;-54
2023/06/25 10:05:19;;;;;;;58.58;54.88;;;;;;;34.69;31.28;100463.25;1730023;81;25652;-55
2023/06/25 10:07:47;;;;;;;59.80;56.60;;;;;;;33.78;31.23;100270.72;1787628;79;25555;-55
2023/06/25 10:10:22;;;;;;;60.05;56.45;;;;;;;32.95;31.01;100118.20;1787389;80;25471;-55
2023/06/25 10:12:49;;;;;;;59.85;56.37;;;;;;;33.25;30.48;100133.13;1786228;78;27138;-54
2023/06/25 10:15:31;;;;;;;81.47;76.53;;;;;;;35.49;30.93;100451.21;1787289;80;25728;-55
2023/06/25 10:18:00;;;;;;;60.45;56.85;;;;;;;;;;1802454;78;30113;-55
2023/06/25 10:20:32;;;;;;;58.83;55.70;;;;;;;;;;1819693;78;25481;-53
2023/06/25 10:23:06;;;;;;;58.17;54.98;;;;;;;;;;1814750;78;25442;-53
2023/06/25 10:25:35;;;;;;;55.38;52.00;;;;;;;;;;1819668;78;27437;-56
2023/06/25 10:28:11;;;;;;;57.80;54.65;;;;;;;;;;1819569;78;25441;-53
2023/06/25 10:30:48;;;;;;;59.00;55.67;;;;;;;;;;1818207;78;25311;-57
2023/06/25 10:33:17;;;;;;;57.38;54.23;;;;;;;;;;1819635;78;25292;-54
2023/06/25 10:35:46;;;;;;;57.65;54.13;;;;;;;;;;1819721;78;25476;-55
2023/06/25 10:38:13;;;;;;;57.75;54.55;;;;;;;;;;1819672;78;27954;-54
2023/06/25 10:40:40;;;;;;;58.80;55.70;;;;;;;;;;1819562;78;25299;-53
2023/06/25 10:43:07;;;;;;;36.03;33.88;;;;;;;;;;1819581;78;25489;-55
2023/06/25 10:45:34;;;;;;;57.62;54.73;;;;;;;;;;1819560;78;25537;-54
2023/06/25 10:48:10;;;;;;;59.40;55.88;;;;;;;;;;1819626;78;25501;-55
2023/06/25 10:50:37;;;;;;;57.15;54.00;;;;;;;;;;1819746;78;26912;-55
2023/06/25 10:53:11;;;;;;;55.58;52.58;;;;;;;;;;1819651;78;25431;-54
2023/06/25 10:55:39;;;;;;;40.28;37.63;;;;;;;;;;1787824;78;25520;-54
2023/06/25 10:58:06;;;;;;;56.68;53.68;;;;;;;;;;1819743;78;25527;-53
2023/06/25 11:00:33;;;;;;;56.00;53.02;;;;;;;;;;1819648;78;25433;-55
2023/06/25 11:03:00;;;;;;;57.15;53.83;;;;;;;;;;1819621;78;27373;-55
2023/06/25 11:05:38;;;;;;;78.25;73.35;;;;;;;;;;1819511;78;25548;-56
